sensor_id;sensor_type;location;lat;lon;timestamp;temperature;humidity
1021;DHT22;499;42.648;23.270;2024-03-23T00:56:55;3.30;25.50
1021;DHT22;499;42.648;23.270;2024-03-23T01:07:10;3.30;25.40
1021;DHT22;499;42.648;23.270;2024-03-23T01:10:00;3.20;25.00
1021;DHT22;499;42.648;23.270;2024-03-23T01:12:54;3.20;25.30
1021;DHT22;499;42.648;23.270;2024-03-23T01:16:03;3.00;25.40
1021;DHT22;499;42.648;23.270;2024-03-23T01:18:56;3.00;25.80
1021;DHT22;499;42.648;23.270;2024-03-23T01:28:53;3.00;25.20
1021;DHT22;499;42.648;23.270;2024-03-23T01:31:42;3.00;24.10
1021;DHT22;499;42.648;23.270;2024-03-23T01:38:05;3.00;23.00
1021;DHT22;499;42.648;23.270;2024-03-23T01:48:08;2.90;23.40
1021;DHT22;499;42.648;23.270;2024-03-23T01:51:01;2.90;22.70
1021;DHT22;499;42.648;23.270;2024-03-23T01:53:33;2.80;23.30
1021;DHT22;499;42.648;23.270;2024-03-23T01:56:24;2.00;22.90
1021;DHT22;499;42.648;23.270;2024-03-23T01:59:10;2.80;23.80
1021;DHT22;499;42.648;23.270;2024-03-23T02:02:25;2.90;23.40
1021;DHT22;499;42.648;23.270;2024-03-23T02:05:08;2.80;23.30
1021;DHT22;499;42.648;23.270;2024-03-23T02:07:42;2.70;23.30
1021;DHT22;499;42.648;23.270;2024-03-23T02:10:53;2.80;22.90
1021;DHT22;499;42.648;23.270;2024-03-23T02:20:31;2.80;22.80
1021;DHT22;499;42.648;23.270;2024-03-23T02:23:13;2.60;23.20
1021;DHT22;499;42.648;23.270;2024-03-23T02:26:14;2.60;23.20
1021;DHT22;499;42.648;23.270;2024-03-23T02:33:15;2.60;23.10
1021;DHT22;499;42.648;23.270;2024-03-23T02:40:14;2.60;23.20
1021;DHT22;499;42.648;23.270;2024-03-23T02:46:53;2.60;23.20
1021;DHT22;499;42.648;23.270;2024-03-23T02:50:25;2.50;23.20
1021;DHT22;499;42.648;23.270;2024-03-23T02:53:51;2.50;23.10
1021;DHT22;499;42.648;23.270;2024-03-23T02:57:34;2.40;23.50
1021;DHT22;499;42.648;23.270;2024-03-23T03:00:39;2.40;23.30
1021;DHT22;499;42.648;23.270;2024-03-23T03:03:36;2.40;23.90
1021;DHT22;499;42.648;23.270;2024-03-23T03:06:53;2.40;24.00
1021;DHT22;499;42.648;23.270;2024-03-23T03:10:01;2.20;24.10
1021;DHT22;499;42.648;23.270;2024-03-23T03:13:32;2.30;24.20
1021;DHT22;499;42.648;23.270;2024-03-23T03:16:23;2.30;23.90
1021;DHT22;499;42.648;23.270;2024-03-23T03:19:14;2.30;24.50
1021;DHT22;499;42.648;23.270;2024-03-23T03:22:10;2.20;24.90
1021;DHT22;499;42.648;23.270;2024-03-23T03:24:51;2.20;25.70
1021;DHT22;499;42.648;23.270;2024-03-23T03:27:48;1.70;25.70
1021;DHT22;499;42.648;23.270;2024-03-23T03:30:45;2.20;26.10
1021;DHT22;499;42.648;23.270;2024-03-23T03:33:34;2.10;26.60
1021;DHT22;499;42.648;23.270;2024-03-23T03:36:27;2.10;26.60
1021;DHT22;499;42.648;23.270;2024-03-23T03:39:15;2.10;26.60
1021;DHT22;499;42.648;23.270;2024-03-23T03:42:07;2.20;26.70
1021;DHT22;499;42.648;23.270;2024-03-23T03:44:57;2.10;25.90
1021;DHT22;499;42.648;23.270;2024-03-23T03:48:02;2.00;26.30
1021;DHT22;499;42.648;23.270;2024-03-23T03:50:49;2.00;26.60
1021;DHT22;499;42.648;23.270;2024-03-23T03:53:16;2.10;26.60
1021;DHT22;499;42.648;23.270;2024-03-23T03:55:53;1.70;26.90
1021;DHT22;499;42.648;23.270;2024-03-23T03:59:18;2.00;26.60
1021;DHT22;499;42.648;23.270;2024-03-23T04:09:53;1.90;26.10
1021;DHT22;499;42.648;23.270;2024-03-23T04:13:29;2.10;25.20
1021;DHT22;499;42.648;23.270;2024-03-23T04:16:54;2.10;25.30
1021;DHT22;499;42.648;23.270;2024-03-23T04:20:06;2.00;26.10
1021;DHT22;499;42.648;23.270;2024-03-23T04:27:36;1.90;26.10
1021;DHT22;499;42.648;23.270;2024-03-23T04:30:53;1.90;26.50
1021;DHT22;499;42.648;23.270;2024-03-23T04:38:24;2.00;26.00
1021;DHT22;499;42.648;23.270;2024-03-23T04:41:53;1.90;26.50
1021;DHT22;499;42.648;23.270;2024-03-23T04:55:29;1.90;26.50
1021;DHT22;499;42.648;23.270;2024-03-23T04:58:30;1.90;26.50
1021;DHT22;499;42.648;23.270;2024-03-23T05:01:18;2.00;26.60
1021;DHT22;499;42.648;23.270;2024-03-23T05:04:30;2.00;27.70
1021;DHT22;499;42.648;23.270;2024-03-23T05:08:03;2.10;28.80
1021;DHT22;499;42.648;23.270;2024-03-23T05:14:51;2.40;30.00
1021;DHT22;499;42.648;23.270;2024-03-23T05:17:32;2.60;29.60
1021;DHT22;499;42.648;23.270;2024-03-23T05:20:31;2.70;29.90
1021;DHT22;499;42.648;23.270;2024-03-23T05:23:39;2.90;30.00
1021;DHT22;499;42.648;23.270;2024-03-23T05:26:38;3.00;30.50
1021;DHT22;499;42.648;23.270;2024-03-23T05:29:29;3.30;29.80
1021;DHT22;499;42.648;23.270;2024-03-23T05:32:30;3.60;28.90
1021;DHT22;499;42.648;23.270;2024-03-23T05:35:23;4.00;28.30
1021;DHT22;499;42.648;23.270;2024-03-23T05:38:18;4.20;27.90
1021;DHT22;499;42.648;23.270;2024-03-23T05:41:24;4.40;27.10
1021;DHT22;499;42.648;23.270;2024-03-23T05:44:29;4.50;26.70
1021;DHT22;499;42.648;23.270;2024-03-23T05:50:33;4.70;26.20
1021;DHT22;499;42.648;23.270;2024-03-23T05:53:50;4.80;25.10
1021;DHT22;499;42.648;23.270;2024-03-23T06:00:34;5.00;24.00
1021;DHT22;499;42.648;23.270;2024-03-23T06:03:35;5.10;23.30
1021;DHT22;499;42.648;23.270;2024-03-23T06:06:32;5.10;23.70
1021;DHT22;499;42.648;23.270;2024-03-23T06:09:17;5.10;23.70
1021;DHT22;499;42.648;23.270;2024-03-23T06:12:00;5.10;24.40
1021;DHT22;499;42.648;23.270;2024-03-23T06:15:25;5.10;23.10
1021;DHT22;499;42.648;23.270;2024-03-23T06:25:33;5.40;23.50
1021;DHT22;499;42.648;23.270;2024-03-23T06:28:16;5.50;22.30
1021;DHT22;499;42.648;23.270;2024-03-23T06:31:10;5.70;22.60
1021;DHT22;499;42.648;23.270;2024-03-23T06:37:54;5.90;21.50
1021;DHT22;499;42.648;23.270;2024-03-23T06:40:48;6.00;21.50
1021;DHT22;499;42.648;23.270;2024-03-23T06:44:09;6.10;21.60
1021;DHT22;499;42.648;23.270;2024-03-23T06:46:55;6.10;21.60
1021;DHT22;499;42.648;23.270;2024-03-23T06:52:55;5.90;22.40
1021;DHT22;499;42.648;23.270;2024-03-23T06:55:49;6.40;22.30
1021;DHT22;499;42.648;23.270;2024-03-23T06:58:39;6.40;22.40
1021;DHT22;499;42.648;23.270;2024-03-23T07:01:43;6.60;22.50
1021;DHT22;499;42.648;23.270;2024-03-23T07:07:39;6.60;21.90
1021;DHT22;499;42.648;23.270;2024-03-23T07:10:39;6.60;21.90
1021;DHT22;499;42.648;23.270;2024-03-23T07:17:47;6.90;22.10
1021;DHT22;499;42.648;23.270;2024-03-23T07:23:50;6.80;21.50
1021;DHT22;499;42.648;23.270;2024-03-23T07:26:40;6.90;21.50
1021;DHT22;499;42.648;23.270;2024-03-23T07:29:37;7.00;21.00
1021;DHT22;499;42.648;23.270;2024-03-23T07:33:00;7.00;22.10
1021;DHT22;499;42.648;23.270;2024-03-23T07:35:58;7.20;22.20
1021;DHT22;499;42.648;23.270;2024-03-23T07:39:03;7.30;21.20
1021;DHT22;499;42.648;23.270;2024-03-23T07:42:04;7.50;21.50
1021;DHT22;499;42.648;23.270;2024-03-23T07:45:38;7.60;21.00
1021;DHT22;499;42.648;23.270;2024-03-23T07:56:00;7.90;20.60
1021;DHT22;499;42.648;23.270;2024-03-23T07:59:02;8.10;19.50
1021;DHT22;499;42.648;23.270;2024-03-23T08:02:38;8.20;20.60
1021;DHT22;499;42.648;23.270;2024-03-23T08:05:34;8.30;19.90
1021;DHT22;499;42.648;23.270;2024-03-23T08:19:19;9.10;18.90
1021;DHT22;499;42.648;23.270;2024-03-23T08:36:31;9.60;17.70
1021;DHT22;499;42.648;23.270;2024-03-23T08:46:16;9.80;15.20
1021;DHT22;499;42.648;23.270;2024-03-23T09:07:04;10.10;13.60
1021;DHT22;499;42.648;23.270;2024-03-23T09:10:05;10.30;13.90
1021;DHT22;499;42.648;23.270;2024-03-23T09:13:07;10.50;12.60
1021;DHT22;499;42.648;23.270;2024-03-23T09:15:58;10.50;11.80
1021;DHT22;499;42.648;23.270;2024-03-23T09:19:04;10.60;11.90
1021;DHT22;499;42.648;23.270;2024-03-23T09:22:15;10.70;11.30
1021;DHT22;499;42.648;23.270;2024-03-23T09:28:57;11.10;11.90
1021;DHT22;499;42.648;23.270;2024-03-23T09:32:22;11.30;10.80
1021;DHT22;499;42.648;23.270;2024-03-23T09:35:28;11.40;10.70
1021;DHT22;499;42.648;23.270;2024-03-23T09:52:09;11.70;10.20
1021;DHT22;499;42.648;23.270;2024-03-23T09:54:39;11.90;10.30
1021;DHT22;499;42.648;23.270;2024-03-23T10:00:54;12.10;8.80
1021;DHT22;499;42.648;23.270;2024-03-23T10:03:49;12.20;8.90
1021;DHT22;499;42.648;23.270;2024-03-23T10:07:10;12.30;7.80
1021;DHT22;499;42.648;23.270;2024-03-23T10:13:37;12.40;7.70
1021;DHT22;499;42.648;23.270;2024-03-23T10:16:52;12.50;8.10
1021;DHT22;499;42.648;23.270;2024-03-23T10:19:32;12.60;8.60
1021;DHT22;499;42.648;23.270;2024-03-23T10:22:00;12.80;7.50
1021;DHT22;499;42.648;23.270;2024-03-23T10:24:54;12.70;6.60
1021;DHT22;499;42.648;23.270;2024-03-23T10:28:18;12.70;6.90
1021;DHT22;499;42.648;23.270;2024-03-23T10:37:52;13.10;6.80
1021;DHT22;499;42.648;23.270;2024-03-23T10:40:43;13.30;6.40
1021;DHT22;499;42.648;23.270;2024-03-23T10:43:36;13.50;4.40
1021;DHT22;499;42.648;23.270;2024-03-23T10:46:27;13.50;4.90
1021;DHT22;499;42.648;23.270;2024-03-23T10:49:34;13.60;5.10
1021;DHT22;499;42.648;23.270;2024-03-23T10:52:34;13.70;4.80
1021;DHT22;499;42.648;23.270;2024-03-23T10:55:29;13.90;5.90
1021;DHT22;499;42.648;23.270;2024-03-23T10:58:39;14.10;3.70
1021;DHT22;499;42.648;23.270;2024-03-23T11:01:16;14.20;4.10
1021;DHT22;499;42.648;23.270;2024-03-23T11:07:29;14.00;3.40
1021;DHT22;499;42.648;23.270;2024-03-23T11:10:24;14.00;4.70
1021;DHT22;499;42.648;23.270;2024-03-23T11:13:21;14.10;4.20
1021;DHT22;499;42.648;23.270;2024-03-23T11:16:29;14.30;4.60
1021;DHT22;499;42.648;23.270;2024-03-23T11:19:34;14.20;5.00
1021;DHT22;499;42.648;23.270;2024-03-23T11:22:42;14.40;3.30
1021;DHT22;499;42.648;23.270;2024-03-23T11:25:46;14.30;4.20
1021;DHT22;499;42.648;23.270;2024-03-23T11:28:53;14.40;3.60
1021;DHT22;499;42.648;23.270;2024-03-23T11:31:37;14.40;3.00
1021;DHT22;499;42.648;23.270;2024-03-23T11:37:50;14.50;3.20
1021;DHT22;499;42.648;23.270;2024-03-23T11:43:56;14.60;1.10
1021;DHT22;499;42.648;23.270;2024-03-23T11:46:50;14.80;1.00
1021;DHT22;499;42.648;23.270;2024-03-23T11:50:04;15.00;1.00
1021;DHT22;499;42.648;23.270;2024-03-23T11:52:46;15.10;1.00
1021;DHT22;499;42.648;23.270;2024-03-23T11:56:10;15.20;1.10
1021;DHT22;499;42.648;23.270;2024-03-23T11:59:04;15.30;1.00
1021;DHT22;499;42.648;23.270;2024-03-23T12:01:34;15.30;1.00
1021;DHT22;499;42.648;23.270;2024-03-23T12:04:12;15.40;1.00
1021;DHT22;499;42.648;23.270;2024-03-23T12:07:12;15.40;1.00
1021;DHT22;499;42.648;23.270;2024-03-23T12:10:08;15.40;1.00
1021;DHT22;499;42.648;23.270;2024-03-23T12:12:53;15.50;1.00
1021;DHT22;499;42.648;23.270;2024-03-23T12:15:31;15.60;1.00
1021;DHT22;499;42.648;23.270;2024-03-23T12:21:48;15.70;1.00
1021;DHT22;499;42.648;23.270;2024-03-23T12:24:39;15.80;1.00
1021;DHT22;499;42.648;23.270;2024-03-23T12:31:29;15.80;1.00
1021;DHT22;499;42.648;23.270;2024-03-23T12:34:20;15.70;1.00
1021;DHT22;499;42.648;23.270;2024-03-23T12:40:59;16.00;1.00
1021;DHT22;499;42.648;23.270;2024-03-23T12:43:43;16.00;1.00
1021;DHT22;499;42.648;23.270;2024-03-23T12:53:55;16.10;1.00
1021;DHT22;499;42.648;23.270;2024-03-23T12:57:01;16.10;1.00
1021;DHT22;499;42.648;23.270;2024-03-23T13:00:14;16.00;1.00
1021;DHT22;499;42.648;23.270;2024-03-23T13:03:47;16.10;1.00
1021;DHT22;499;42.648;23.270;2024-03-23T13:06:41;16.20;1.00
1021;DHT22;499;42.648;23.270;2024-03-23T13:09:49;16.30;1.00
1021;DHT22;499;42.648;23.270;2024-03-23T13:12:39;16.20;1.00
1021;DHT22;499;42.648;23.270;2024-03-23T13:15:58;16.40;1.00
1021;DHT22;499;42.648;23.270;2024-03-23T13:18:46;16.40;1.00
1021;DHT22;499;42.648;23.270;2024-03-23T13:22:01;16.40;1.00
1021;DHT22;499;42.648;23.270;2024-03-23T13:24:33;16.40;1.00
1021;DHT22;499;42.648;23.270;2024-03-23T13:27:23;16.40;1.00
1021;DHT22;499;42.648;23.270;2024-03-23T13:30:33;16.40;1.00
1021;DHT22;499;42.648;23.270;2024-03-23T13:33:58;16.40;1.00
1021;DHT22;499;42.648;23.270;2024-03-23T13:36:40;16.40;1.00
1021;DHT22;499;42.648;23.270;2024-03-23T13:49:40;16.50;1.00
1021;DHT22;499;42.648;23.270;2024-03-23T13:52:07;16.50;1.00
1021;DHT22;499;42.648;23.270;2024-03-23T13:55:07;16.50;1.00
1021;DHT22;499;42.648;23.270;2024-03-23T14:05:17;16.50;1.00
1021;DHT22;499;42.648;23.270;2024-03-23T14:08:34;16.40;1.00
1021;DHT22;499;42.648;23.270;2024-03-23T14:11:05;16.30;1.00
1021;DHT22;499;42.648;23.270;2024-03-23T14:13:34;16.40;1.00
1021;DHT22;499;42.648;23.270;2024-03-23T14:16:23;16.40;1.00
1021;DHT22;499;42.648;23.270;2024-03-23T14:19:03;16.40;1.00
1021;DHT22;499;42.648;23.270;2024-03-23T14:22:02;16.50;1.00
1021;DHT22;499;42.648;23.270;2024-03-23T14:25:32;16.60;1.00
1021;DHT22;499;42.648;23.270;2024-03-23T14:32:11;16.50;1.00
1021;DHT22;499;42.648;23.270;2024-03-23T14:35:06;16.50;1.00
1021;DHT22;499;42.648;23.270;2024-03-23T14:41:42;16.40;1.00
1021;DHT22;499;42.648;23.270;2024-03-23T14:44:35;16.40;1.00
1021;DHT22;499;42.648;23.270;2024-03-23T14:47:16;16.40;1.00
1021;DHT22;499;42.648;23.270;2024-03-23T14:50:33;16.50;1.00
1021;DHT22;499;42.648;23.270;2024-03-23T14:53:04;16.50;1.00
1021;DHT22;499;42.648;23.270;2024-03-23T14:56:07;16.50;1.00
1021;DHT22;499;42.648;23.270;2024-03-23T14:58:57;16.30;1.00
1021;DHT22;499;42.648;23.270;2024-03-23T15:02:07;16.30;1.00
1021;DHT22;499;42.648;23.270;2024-03-23T15:05:19;16.20;1.00
1021;DHT22;499;42.648;23.270;2024-03-23T15:08:40;16.20;1.00
1021;DHT22;499;42.648;23.270;2024-03-23T15:11:30;16.10;1.00
1021;DHT22;499;42.648;23.270;2024-03-23T15:17:35;16.20;1.00
1021;DHT22;499;42.648;23.270;2024-03-23T15:24:12;16.20;1.00
1021;DHT22;499;42.648;23.270;2024-03-23T15:27:37;16.10;1.00
1021;DHT22;499;42.648;23.270;2024-03-23T15:31:01;16.00;1.00
1021;DHT22;499;42.648;23.270;2024-03-23T15:34:18;15.80;1.00
1021;DHT22;499;42.648;23.270;2024-03-23T15:37:50;15.70;1.00
1021;DHT22;499;42.648;23.270;2024-03-23T15:44:40;15.30;2.40
1021;DHT22;499;42.648;23.270;2024-03-23T15:47:29;15.10;2.90
1021;DHT22;499;42.648;23.270;2024-03-23T15:50:00;14.80;2.80
1021;DHT22;499;42.648;23.270;2024-03-23T15:55:58;14.60;2.20
1021;DHT22;499;42.648;23.270;2024-03-23T16:02:39;14.30;3.10
1021;DHT22;499;42.648;23.270;2024-03-23T16:08:55;14.00;1.00
1021;DHT22;499;42.648;23.270;2024-03-23T16:11:40;13.90;1.80
1021;DHT22;499;42.648;23.270;2024-03-23T16:14:27;14.00;1.00
1021;DHT22;499;42.648;23.270;2024-03-23T16:21:05;13.90;2.80
1021;DHT22;499;42.648;23.270;2024-03-23T16:23:49;13.80;3.10
1021;DHT22;499;42.648;23.270;2024-03-23T16:34:16;13.40;2.90
1021;DHT22;499;42.648;23.270;2024-03-23T16:37:02;13.30;2.40
1021;DHT22;499;42.648;23.270;2024-03-23T16:39:52;13.20;2.80
1021;DHT22;499;42.648;23.270;2024-03-23T16:43:21;13.20;2.70
1021;DHT22;499;42.648;23.270;2024-03-23T16:46:51;13.30;2.40
1021;DHT22;499;42.648;23.270;2024-03-23T16:49:51;13.40;2.70
1021;DHT22;499;42.648;23.270;2024-03-23T16:52:59;13.30;3.20
1021;DHT22;499;42.648;23.270;2024-03-23T16:56:24;13.40;2.90
1021;DHT22;499;42.648;23.270;2024-03-23T16:59:17;13.40;3.00
1021;DHT22;499;42.648;23.270;2024-03-23T17:02:38;13.40;3.20
1021;DHT22;499;42.648;23.270;2024-03-23T17:09:09;13.50;3.30
1021;DHT22;499;42.648;23.270;2024-03-23T17:16:11;13.50;3.30
1021;DHT22;499;42.648;23.270;2024-03-23T17:19:38;13.50;2.70
1021;DHT22;499;42.648;23.270;2024-03-23T17:22:38;13.40;2.80
1021;DHT22;499;42.648;23.270;2024-03-23T17:25:24;13.50;2.50
1021;DHT22;499;42.648;23.270;2024-03-23T17:28:10;13.40;2.40
1021;DHT22;499;42.648;23.270;2024-03-23T17:31:06;13.40;2.20
1021;DHT22;499;42.648;23.270;2024-03-23T17:33:51;13.40;2.30
1021;DHT22;499;42.648;23.270;2024-03-23T17:36:22;13.30;2.40
1021;DHT22;499;42.648;23.270;2024-03-23T17:39:18;13.30;2.50
1021;DHT22;499;42.648;23.270;2024-03-23T17:42:21;13.20;2.70
1021;DHT22;499;42.648;23.270;2024-03-23T17:45:24;13.10;2.90
1021;DHT22;499;42.648;23.270;2024-03-23T17:49:09;13.20;2.70
1021;DHT22;499;42.648;23.270;2024-03-23T17:51:46;13.20;2.80
1021;DHT22;499;42.648;23.270;2024-03-23T17:54:26;13.20;3.00
1021;DHT22;499;42.648;23.270;2024-03-23T17:57:00;13.10;3.00
1021;DHT22;499;42.648;23.270;2024-03-23T17:59:29;13.20;3.10
1021;DHT22;499;42.648;23.270;2024-03-23T18:02:31;13.20;3.10
1021;DHT22;499;42.648;23.270;2024-03-23T18:05:47;13.10;3.20
1021;DHT22;499;42.648;23.270;2024-03-23T18:08:41;13.10;3.50
1021;DHT22;499;42.648;23.270;2024-03-23T18:11:27;13.00;3.20
1021;DHT22;499;42.648;23.270;2024-03-23T18:14:40;13.10;3.10
1021;DHT22;499;42.648;23.270;2024-03-23T18:17:46;13.10;3.00
1021;DHT22;499;42.648;23.270;2024-03-23T18:20:59;13.10;2.70
1021;DHT22;499;42.648;23.270;2024-03-23T18:24:04;13.10;2.70
1021;DHT22;499;42.648;23.270;2024-03-23T18:27:40;13.10;2.50
1021;DHT22;499;42.648;23.270;2024-03-23T18:34:19;13.00;2.70
1021;DHT22;499;42.648;23.270;2024-03-23T18:37:09;13.00;3.00
1021;DHT22;499;42.648;23.270;2024-03-23T18:39:40;13.00;3.20
1021;DHT22;499;42.648;23.270;2024-03-23T18:42:18;12.90;3.30
1021;DHT22;499;42.648;23.270;2024-03-23T18:48:45;13.00;3.30
1021;DHT22;499;42.648;23.270;2024-03-23T18:52:03;12.90;3.40
1021;DHT22;499;42.648;23.270;2024-03-23T18:55:01;12.90;3.20
1021;DHT22;499;42.648;23.270;2024-03-23T18:57:47;12.90;3.40
1021;DHT22;499;42.648;23.270;2024-03-23T19:03:42;12.80;3.80
1021;DHT22;499;42.648;23.270;2024-03-23T19:06:17;12.70;3.80
1021;DHT22;499;42.648;23.270;2024-03-23T19:09:28;12.70;3.80
1021;DHT22;499;42.648;23.270;2024-03-23T19:12:28;12.70;4.00
1021;DHT22;499;42.648;23.270;2024-03-23T19:15:00;12.70;3.60
1021;DHT22;499;42.648;23.270;2024-03-23T19:17:48;12.70;3.70
1021;DHT22;499;42.648;23.270;2024-03-23T19:23:58;12.80;3.30
1021;DHT22;499;42.648;23.270;2024-03-23T19:29:57;12.70;4.00
1021;DHT22;499;42.648;23.270;2024-03-23T19:32:32;12.70;4.10
1021;DHT22;499;42.648;23.270;2024-03-23T19:35:52;12.60;4.60
1021;DHT22;499;42.648;23.270;2024-03-23T19:38:58;12.20;3.80
1021;DHT22;499;42.648;23.270;2024-03-23T19:41:28;12.20;3.80
1021;DHT22;499;42.648;23.270;2024-03-23T19:44:14;12.50;3.90
1021;DHT22;499;42.648;23.270;2024-03-23T19:47:03;12.50;3.80
1021;DHT22;499;42.648;23.270;2024-03-23T19:53:06;12.40;3.00
1021;DHT22;499;42.648;23.270;2024-03-23T19:56:03;12.40;2.50
1021;DHT22;499;42.648;23.270;2024-03-23T19:59:48;12.40;2.10
1021;DHT22;499;42.648;23.270;2024-03-23T20:06:43;12.40;1.80
1021;DHT22;499;42.648;23.270;2024-03-23T20:10:14;12.30;2.20
1021;DHT22;499;42.648;23.270;2024-03-23T20:50:39;10.70;9.40
1021;DHT22;499;42.648;23.270;2024-03-23T20:53:26;10.20;10.40
1021;DHT22;499;42.648;23.270;2024-03-23T20:56:13;9.90;12.10
1021;DHT22;499;42.648;23.270;2024-03-23T20:59:46;9.80;12.10
1021;DHT22;499;42.648;23.270;2024-03-23T21:02:25;9.60;11.90
1021;DHT22;499;42.648;23.270;2024-03-23T21:05:27;9.40;12.10
1021;DHT22;499;42.648;23.270;2024-03-23T21:08:21;9.30;12.60
1021;DHT22;499;42.648;23.270;2024-03-23T21:11:04;9.50;12.50
1021;DHT22;499;42.648;23.270;2024-03-23T21:13:44;9.30;12.30
1021;DHT22;499;42.648;23.270;2024-03-23T21:16:41;9.30;12.90
1021;DHT22;499;42.648;23.270;2024-03-23T21:19:19;9.20;13.30
1021;DHT22;499;42.648;23.270;2024-03-23T21:26:15;9.20;13.20
1021;DHT22;499;42.648;23.270;2024-03-23T21:29:17;9.20;13.20
1021;DHT22;499;42.648;23.270;2024-03-23T21:32:15;9.10;14.10
1021;DHT22;499;42.648;23.270;2024-03-23T21:35:33;8.90;14.20
1021;DHT22;499;42.648;23.270;2024-03-23T21:38:49;9.00;14.70
1021;DHT22;499;42.648;23.270;2024-03-23T21:42:11;8.70;15.10
1021;DHT22;499;42.648;23.270;2024-03-23T21:45:45;8.60;15.30
1021;DHT22;499;42.648;23.270;2024-03-23T21:49:00;8.60;15.30
1021;DHT22;499;42.648;23.270;2024-03-23T21:52:16;8.50;15.30
1021;DHT22;499;42.648;23.270;2024-03-23T21:59:02;8.30;16.30
1021;DHT22;499;42.648;23.270;2024-03-23T22:02:09;8.10;16.80
1021;DHT22;499;42.648;23.270;2024-03-23T22:05:05;7.60;16.70
1021;DHT22;499;42.648;23.270;2024-03-23T22:07:57;7.80;17.30
1021;DHT22;499;42.648;23.270;2024-03-23T22:11:32;7.70;17.80
1021;DHT22;499;42.648;23.270;2024-03-23T22:21:57;7.50;18.60
1021;DHT22;499;42.648;23.270;2024-03-23T22:25:05;7.50;18.60
1021;DHT22;499;42.648;23.270;2024-03-23T22:31:21;7.40;18.50
1021;DHT22;499;42.648;23.270;2024-03-23T22:41:35;6.80;19.60
1021;DHT22;499;42.648;23.270;2024-03-23T22:47:58;7.00;20.10
1021;DHT22;499;42.648;23.270;2024-03-23T22:50:51;7.00;19.80
1021;DHT22;499;42.648;23.270;2024-03-23T22:57:59;6.90;20.00
1021;DHT22;499;42.648;23.270;2024-03-23T23:01:14;6.80;20.40
1021;DHT22;499;42.648;23.270;2024-03-23T23:04:14;6.80;20.60
1021;DHT22;499;42.648;23.270;2024-03-23T23:07:02;7.10;21.50
1021;DHT22;499;42.648;23.270;2024-03-23T23:09:47;6.90;21.30
1021;DHT22;499;42.648;23.270;2024-03-23T23:16:16;6.90;21.60
1021;DHT22;499;42.648;23.270;2024-03-23T23:19:25;6.70;22.00
1021;DHT22;499;42.648;23.270;2024-03-23T23:22:13;6.90;21.40
1021;DHT22;499;42.648;23.270;2024-03-23T23:25:17;6.80;22.00
1021;DHT22;499;42.648;23.270;2024-03-23T23:27:58;6.80;22.00
1021;DHT22;499;42.648;23.270;2024-03-23T23:31:10;6.70;22.00
1021;DHT22;499;42.648;23.270;2024-03-23T23:34:20;6.80;22.00
1021;DHT22;499;42.648;23.270;2024-03-23T23:37:30;6.70;22.00
1021;DHT22;499;42.648;23.270;2024-03-23T23:40:32;6.70;22.00
1021;DHT22;499;42.648;23.270;2024-03-23T23:43:30;6.70;22.00
1021;DHT22;499;42.648;23.270;2024-03-23T23:46:42;6.80;20.60
1021;DHT22;499;42.648;23.270;2024-03-23T23:50:07;6.80;21.30
1021;DHT22;499;42.648;23.270;2024-03-23T23:53:11;6.80;20.40
1021;DHT22;499;42.648;23.270;2024-03-23T23:56:03;6.90;20.80
1021;DHT22;499;42.648;23.270;2024-03-23T23:58:55;6.90;20.10
